Latest  Newer  Older  Last 2 hours slideshow  Last 24 hours slideshow  Refresh every 5 minutes 
Current image  Latest image  Rain/snow radar  Cloud coverage sat images 

All time is UTC (add 2 hours to UTC in wintertime, 3 hours to UTC in DST for Latvia local time)

2019/02/17 17:20 EVRA 171720Z 33006KT CAVOK 01/M02 Q1020 R36/190095 NOSIG
2019/02/17 17:20 EVLA 171720Z AUTO 03001KT 9999 BKN052/// OVC068/// 04/01 Q1021
2019/02/17 17:20 EVVA 171720Z AUTO 00000KT CAVOK M01/M02 Q1021
2019/02/17 17:20 EYKA 171720Z 28004KT 9000 NSC 04/02 Q1021 R08/190095
2019/02/17 17:20 EYPA 171720Z VRB02KT 1400 R19/P2000N BR OVC001 04/03 Q1022 R19/1///95
2019/02/17 17:20 EYSA 171720Z 28004KT 9000 NSC 01/01 Q1021 R32R/29//95 BLU TEMPO 6000 WHT
2019/02/17 17:20 EYVI 171720Z VRB02KT 8000 NSC 03/02 Q1020 R01/1///95 NOSIG
2019/02/17 15:50 EEKA 171550Z 27006KT 220V330 CAVOK 01/M00 Q1020
2019/02/17 16:50 EEKE 171650Z 33004KT 300V360 CAVOK 02/M00 Q1020 R17/290095
2019/02/17 13:50 EEPU 171350Z 29008KT CAVOK 03/M02 Q1017
2019/02/17 17:20 EETN 171720Z 30005KT CAVOK 01/M02 Q1019 R08/19//95 NOSIG
2019/02/17 16:50 EETU 171650Z AUTO 30007KT 9999 NCD 01/M04 Q1017
   RIGA AIRPORT     EVRA               56 55N  023 58E   10   X     T          6 LV
   LIEPAJA INTL     EVLA        26406  56 31N  021 06E    4   X                8 LV
   VENTPILS         EVVA               57 21N  021 33E    6   X                8 LV
   KAUNAS           EYKA               54 54N  023 55E   77   X     T          6 LT
   PALANGA INTL     EYPA               55 55N  021 03E   10   X                6 LT
   SIAULIAI INTL    EYSA               55 54N  023 24E  135   X     T          6 LT
   VILNIUS INTL     EYVI        26730  54 38N  025 17E  197   X     T          6 LT
   KARDLA           EEKA        26116  58 59N  022 50E    4   X                8 EE
   KURESSAARE       EEKE               58 14N  022 31E    4   X                8 EE
   PARNU            EEPU               58 25N  024 28E   14   X                8 EE
   TALLINN          EETN        26038  59 24N  024 49E   40   X     T          8 EE
   TARTU            EETU               58 19N  026 41E   67   X                8 EE